Time;durP1;ratioP1;P1;durP2;ratioP2;P2;SDS_P1;SDS_P2;PMS_P1;PMS_P2;Temp;Humidity;BMP_temperature;BMP_pressure;BME280_temperature;BME280_humidity;BME280_pressure;Samples;Min_cycle;Max_cycle;Signal;HPM_P1;HPM_P2
2022/11/12 00:02:07;;;;;;;;;;;;;;;13.12;63.08;103213.28;5041286;28;20013;-74
2022/11/12 00:04:33;;;;;;;;;;;;;;;13.12;62.23;103209.72;5041042;28;20372;-75
2022/11/12 00:06:58;;;;;;;;;;;;;;;13.17;62.26;103210.00;5040314;28;19917;-75
2022/11/12 00:09:23;;;;;;;;;;;;;;;13.17;61.97;103210.00;5035616;28;19916;-75
2022/11/12 00:11:49;;;;;;;;;;;;;;;13.06;62.07;103216.72;5041573;28;20396;-75
2022/11/12 00:14:14;;;;;;;;;;;;;;;13.05;62.32;103212.31;5043420;28;19991;-75
2022/11/12 00:16:39;;;;;;;;;;;;;;;13.07;62.25;103212.16;5040957;28;19920;-77
2022/11/12 00:19:04;;;;;;;;;;;;;;;13.12;62.79;103210.59;5043019;28;20004;-75
2022/11/12 00:21:30;;;;;;;;;;;;;;;13.23;62.33;103217.38;5041925;28;20395;-75
2022/11/12 00:23:55;;;;;;;;;;;;;;;13.10;62.15;103220.72;5044145;28;19913;-75
2022/11/12 00:26:20;;;;;;;;;;;;;;;13.19;61.89;103214.22;5042775;28;19925;-74
2022/11/12 00:28:45;;;;;;;;;;;;;;;13.04;62.59;103223.31;5040998;28;19997;-75
2022/11/12 00:31:11;;;;;;;;;;;;;;;12.43;65.32;103224.28;5042094;28;20007;-75
2022/11/12 00:33:40;;;;;;;;;;;;;;;12.96;63.56;103220.66;5041711;28;19921;-75
2022/11/12 00:36:05;;;;;;;;;;;;;;;13.11;62.80;103216.13;5049320;28;19921;-76
2022/11/12 00:38:31;;;;;;;;;;;;;;;12.97;63.80;103208.84;5046953;28;19916;-76
2022/11/12 00:40:59;;;;;;;;;;;;;;;12.92;63.59;103205.84;5032313;28;19913;-74
2022/11/12 00:43:24;;;;;;;;;;;;;;;13.12;63.50;103207.88;5032371;28;19917;-75
2022/11/12 00:45:50;;;;;;;;;;;;;;;13.00;63.52;103216.56;5032211;28;19913;-74
2022/11/12 00:48:15;;;;;;;;;;;;;;;12.88;64.40;103215.31;5032250;28;19919;-75
2022/11/12 00:50:40;;;;;;;;;;;;;;;12.89;64.45;103217.84;5032476;28;20376;-75
2022/11/12 00:53:05;;;;;;;;;;;;;;;12.86;64.58;103220.06;5032471;28;20341;-74
2022/11/12 00:55:31;;;;;;;;;;;;;;;13.06;63.26;103222.13;5040979;28;19947;-73
2022/11/12 00:57:59;;;;;;;;;;;;;;;13.12;63.22;103220.53;5052411;28;20366;-76
2022/11/12 01:00:24;;;;;;;;;;;;;;;13.00;62.91;103228.22;5052504;28;19913;-75
2022/11/12 01:02:49;;;;;;;;;;;;;;;12.89;62.87;103227.81;5052746;28;19975;-75
2022/11/12 01:05:15;;;;;;;;;;;;;;;12.79;62.78;103221.81;5051995;28;19913;-77
2022/11/12 01:07:40;;;;;;;;;;;;;;;12.85;62.98;103226.50;5052200;28;19927;-75
2022/11/12 01:10:06;;;;;;;;;;;;;;;12.73;63.82;103218.00;5051831;28;19971;-75
2022/11/12 01:12:32;;;;;;;;;;;;;;;12.69;62.77;103221.22;5051918;28;19920;-75
2022/11/12 01:14:57;;;;;;;;;;;;;;;12.71;63.18;103225.44;5052105;28;20269;-74
2022/11/12 01:17:22;;;;;;;;;;;;;;;12.63;63.01;103225.50;5056138;28;19916;-74
2022/11/12 01:19:48;;;;;;;;;;;;;;;12.49;64.54;103217.34;5055980;28;19916;-74
2022/11/12 01:22:13;;;;;;;;;;;;;;;12.63;63.36;103228.19;5055648;28;19913;-74
2022/11/12 01:24:38;;;;;;;;;;;;;;;12.71;63.26;103214.66;5055603;28;20273;-74
2022/11/12 01:27:04;;;;;;;;;;;;;;;12.51;63.13;103224.25;5055184;28;19916;-75
2022/11/12 01:29:29;;;;;;;;;;;;;;;12.55;62.88;103222.00;5056034;28;19916;-75
2022/11/12 01:31:54;;;;;;;;;;;;;;;12.58;62.53;103222.47;5055482;28;19928;-75
2022/11/12 01:34:19;;;;;;;;;;;;;;;12.54;62.81;103225.75;5055629;28;19923;-75
2022/11/12 01:36:45;;;;;;;;;;;;;;;12.45;63.08;103221.41;5055438;28;20395;-76
2022/11/12 01:39:10;;;;;;;;;;;;;;;12.43;63.44;103227.00;5055380;28;20578;-75
2022/11/12 01:41:36;;;;;;;;;;;;;;;12.40;62.66;103221.97;5056028;28;19913;-76
2022/11/12 01:44:07;;;;;;;;;;;;;;;12.38;62.91;103214.03;5055322;28;20317;-73
2022/11/12 01:46:34;;;;;;;;;;;;;;;12.36;63.04;103218.75;5055193;28;19917;-75
2022/11/12 01:49:02;;;;;;;;;;;;;;;12.45;62.70;103218.72;5053551;28;19917;-74
2022/11/12 01:51:32;;;;;;;;;;;;;;;12.45;62.21;103205.22;5055207;28;20377;-75
2022/11/12 01:54:02;;;;;;;;;;;;;;;12.31;62.72;103207.69;5055417;28;19915;-74
2022/11/12 01:56:29;;;;;;;;;;;;;;;12.20;63.15;103205.41;5055565;28;19916;-75
2022/11/12 01:58:58;;;;;;;;;;;;;;;12.16;63.17;103197.84;5055003;28;20356;-74
2022/11/12 02:01:23;;;;;;;;;;;;;;;12.22;62.24;103211.47;5054915;28;19947;-75
2022/11/12 02:03:49;;;;;;;;;;;;;;;12.18;62.64;103210.16;5055084;28;20083;-74
2022/11/12 02:06:15;;;;;;;;;;;;;;;12.10;62.49;103207.50;5054654;28;19919;-75
2022/11/12 02:08:40;;;;;;;;;;;;;;;12.09;62.51;103208.50;5055043;28;20329;-76
2022/11/12 02:11:11;;;;;;;;;;;;;;;12.04;62.40;103199.28;5054781;28;20003;-75
2022/11/12 02:16:20;;;;;;;;;;;;;;;11.92;62.89;103204.22;5054485;28;19967;-75
2022/11/12 02:18:45;;;;;;;;;;;;;;;12.02;62.58;103207.53;5054714;28;19916;-75
2022/11/12 02:21:10;;;;;;;;;;;;;;;11.93;62.25;103213.97;5054814;28;19908;-75
2022/11/12 02:23:36;;;;;;;;;;;;;;;11.97;62.21;103209.91;5054438;28;19919;-75
2022/11/12 02:26:02;;;;;;;;;;;;;;;11.89;62.61;103211.81;5054732;28;19916;-74
2022/11/12 02:28:29;;;;;;;;;;;;;;;11.84;62.13;103204.25;5053611;28;19913;-76
2022/11/12 02:30:55;;;;;;;;;;;;;;;11.86;62.02;103196.00;5054182;28;19924;-75
2022/11/12 02:33:20;;;;;;;;;;;;;;;11.81;62.15;103206.47;5054340;28;19921;-77
2022/11/12 02:35:45;;;;;;;;;;;;;;;11.84;62.16;103208.81;5054622;28;19931;-76
2022/11/12 02:38:10;;;;;;;;;;;;;;;11.78;62.40;103207.66;5054344;28;19923;-76
2022/11/12 02:40:36;;;;;;;;;;;;;;;11.79;61.90;103203.13;5054286;28;19916;-75
2022/11/12 02:43:01;;;;;;;;;;;;;;;11.81;61.98;103201.91;5052757;28;19935;-76
2022/11/12 02:45:26;;;;;;;;;;;;;;;11.75;61.95;103199.94;5053867;28;19917;-75
2022/11/12 02:47:52;;;;;;;;;;;;;;;11.73;61.84;103196.59;5054522;28;19912;-76
2022/11/12 02:50:17;;;;;;;;;;;;;;;11.70;62.18;103190.69;5053883;28;20421;-75
2022/11/12 02:52:43;;;;;;;;;;;;;;;11.59;61.76;103182.97;5053977;28;19924;-76
2022/11/12 02:55:09;;;;;;;;;;;;;;;11.62;61.90;103190.69;5053870;28;19920;-76
2022/11/12 02:57:35;;;;;;;;;;;;;;;11.63;62.22;103195.06;5052046;28;19952;-74
2022/11/12 03:00:01;;;;;;;;;;;;;;;11.66;61.85;103197.44;5053131;28;19935;-76
2022/11/12 03:02:26;;;;;;;;;;;;;;;11.67;62.22;103202.66;5053504;28;19995;-75
2022/11/12 03:04:51;;;;;;;;;;;;;;;11.59;61.64;103215.28;5053009;28;19921;-74
2022/11/12 03:07:16;;;;;;;;;;;;;;;11.61;61.98;103197.94;5052961;28;19917;-75
2022/11/12 03:09:42;;;;;;;;;;;;;;;11.51;62.64;103205.38;5052985;28;20370;-74
2022/11/12 03:12:07;;;;;;;;;;;;;;;11.40;63.95;103198.50;5053034;28;19913;-75
2022/11/12 03:14:32;;;;;;;;;;;;;;;11.52;62.38;103201.66;5053834;28;20012;-76
2022/11/12 03:16:57;;;;;;;;;;;;;;;11.44;62.58;103199.84;5052565;28;20507;-75
2022/11/12 03:19:23;;;;;;;;;;;;;;;11.43;62.24;103194.63;5052815;28;20443;-76
2022/11/12 03:21:48;;;;;;;;;;;;;;;11.43;62.51;103191.94;5033168;28;20328;-74
2022/11/12 03:24:13;;;;;;;;;;;;;;;11.37;62.19;103198.00;5033484;28;19944;-75
2022/11/12 03:26:38;;;;;;;;;;;;;;;11.37;62.36;103201.56;5033709;28;19912;-75
2022/11/12 03:29:04;;;;;;;;;;;;;;;11.28;62.19;103197.19;5033470;28;20365;-75
2022/11/12 03:31:29;;;;;;;;;;;;;;;11.16;63.23;103198.56;5031733;28;19928;-76
2022/11/12 03:33:54;;;;;;;;;;;;;;;11.23;63.21;103194.19;5033105;28;19932;-76
2022/11/12 03:36:19;;;;;;;;;;;;;;;11.30;63.01;103199.72;5048473;28;19921;-74
2022/11/12 03:38:45;;;;;;;;;;;;;;;11.31;63.09;103199.56;5041007;28;19915;-75
2022/11/12 03:41:10;;;;;;;;;;;;;;;11.12;63.98;103191.88;5052854;28;19917;-75
2022/11/12 03:43:35;;;;;;;;;;;;;;;11.29;63.65;103190.81;5052713;28;19920;-75
2022/11/12 03:46:01;;;;;;;;;;;;;;;11.31;63.11;103193.31;5052633;28;19912;-74
2022/11/12 03:48:26;;;;;;;;;;;;;;;11.35;62.84;103191.97;5052439;28;19917;-74
2022/11/12 03:50:52;;;;;;;;;;;;;;;11.33;62.39;103191.28;5053025;28;19912;-75
2022/11/12 03:53:18;;;;;;;;;;;;;;;11.23;62.86;103178.03;5052595;28;19920;-75
2022/11/12 03:55:43;;;;;;;;;;;;;;;11.36;62.37;103188.28;5052459;28;19920;-74
2022/11/12 03:58:08;;;;;;;;;;;;;;;11.30;62.38;103189.78;5052549;28;20002;-75
2022/11/12 04:00:34;;;;;;;;;;;;;;;11.37;62.28;103192.63;5052359;28;19916;-74
2022/11/12 04:02:59;;;;;;;;;;;;;;;11.18;62.94;103191.16;5052475;28;19917;-74
2022/11/12 04:10:57;;;;;;;;;;;;;;;11.35;63.01;103200.88;5052668;28;19943;-74
2022/11/12 04:13:28;;;;;;;;;;;;;;;11.17;63.74;103200.25;5052400;28;19917;-74
2022/11/12 04:26:21;;;;;;;;;;;;;;;11.38;62.74;103194.28;5043762;28;19935;-75
2022/11/12 04:26:55;;;;;;;;;;;;;;;11.27;63.57;103187.44;5032675;28;20311;-76
2022/11/12 04:32:05;;;;;;;;;;;;;;;11.34;62.94;103198.38;5032414;28;19970;-76
2022/11/12 04:34:30;;;;;;;;;;;;;;;11.31;62.92;103198.69;5032542;28;20003;-74
2022/11/12 04:36:55;;;;;;;;;;;;;;;11.06;63.83;103197.09;5032552;28;19925;-75
2022/11/12 04:39:20;;;;;;;;;;;;;;;10.98;64.22;103194.41;5039387;28;20068;-75
2022/11/12 04:47:13;;;;;;;;;;;;;;;10.90;64.02;103197.94;5052309;28;19924;-74
2022/11/12 04:49:38;;;;;;;;;;;;;;;11.15;64.09;103202.28;5050536;28;20571;-75
2022/11/12 04:52:04;;;;;;;;;;;;;;;11.29;63.15;103206.97;5055639;28;19917;-75
2022/11/12 04:54:29;;;;;;;;;;;;;;;11.35;62.91;103197.34;5056009;28;19916;-76
2022/11/12 04:56:54;;;;;;;;;;;;;;;11.50;62.46;103192.91;5056401;28;20039;-75
2022/11/12 04:59:19;;;;;;;;;;;;;;;11.08;63.28;103198.59;5056085;28;20360;-76
2022/11/12 05:01:45;;;;;;;;;;;;;;;11.34;62.98;103209.97;5052405;28;20352;-74
2022/11/12 05:04:10;;;;;;;;;;;;;;;11.18;63.02;103210.00;5055898;28;19919;-76
2022/11/12 05:06:50;;;;;;;;;;;;;;;11.22;63.11;103216.72;5055917;28;19927;-75
2022/11/12 05:09:16;;;;;;;;;;;;;;;11.25;63.15;103207.47;5042915;28;19909;-75
2022/11/12 05:11:41;;;;;;;;;;;;;;;11.30;62.64;103205.94;5055699;28;19929;-75
2022/11/12 05:14:06;;;;;;;;;;;;;;;11.24;62.60;103201.22;5053525;28;19917;-76
2022/11/12 05:16:32;;;;;;;;;;;;;;;11.37;62.83;103204.25;5053457;28;20012;-75
2022/11/12 05:18:57;;;;;;;;;;;;;;;11.35;62.32;103206.28;5055713;28;19964;-75
2022/11/12 05:24:06;;;;;;;;;;;;;;;11.10;65.43;103201.13;5055486;28;19919;-75
2022/11/12 05:26:31;;;;;;;;;;;;;;;10.98;66.09;103191.72;5056063;28;20003;-75
2022/11/12 05:28:56;;;;;;;;;;;;;;;11.07;65.26;103196.06;5055816;28;20407;-75
2022/11/12 05:31:21;;;;;;;;;;;;;;;11.05;65.18;103190.00;5053817;28;19916;-75
2022/11/12 05:33:47;;;;;;;;;;;;;;;11.09;65.13;103202.97;5055648;28;19916;-74
2022/11/12 05:36:12;;;;;;;;;;;;;;;11.08;65.05;103195.91;5054893;28;20404;-75
2022/11/12 05:38:38;;;;;;;;;;;;;;;11.17;64.48;103197.56;5056123;28;20003;-75
2022/11/12 05:41:03;;;;;;;;;;;;;;;10.97;64.76;103190.88;5055064;28;19952;-76
2022/11/12 05:43:28;;;;;;;;;;;;;;;11.15;64.60;103196.03;5055621;28;19923;-75
2022/11/12 05:45:53;;;;;;;;;;;;;;;11.07;64.98;103193.38;5055458;28;19948;-74
2022/11/12 05:48:19;;;;;;;;;;;;;;;11.12;64.31;103189.19;5055014;28;19928;-74
2022/11/12 05:50:44;;;;;;;;;;;;;;;10.85;65.11;103183.34;5055783;28;19908;-74
2022/11/12 05:53:09;;;;;;;;;;;;;;;10.86;65.51;103182.31;5054835;28;20653;-76
2022/11/12 05:55:34;;;;;;;;;;;;;;;11.05;64.61;103182.78;5054806;28;19921;-76
2022/11/12 05:58:03;;;;;;;;;;;;;;;11.12;64.94;103182.94;5055254;28;20443;-75
2022/11/12 06:00:28;;;;;;;;;;;;;;;11.06;64.40;103178.25;5055201;28;19913;-76
2022/11/12 06:02:55;;;;;;;;;;;;;;;10.96;64.43;103181.13;5048856;28;20012;-75
2022/11/12 06:05:21;;;;;;;;;;;;;;;11.10;63.99;103172.38;5034846;28;19913;-75
2022/11/12 06:07:46;;;;;;;;;;;;;;;11.16;63.86;103171.66;5034896;28;20312;-76
2022/11/12 06:10:11;;;;;;;;;;;;;;;10.87;64.71;103170.56;5051374;28;19939;-76
2022/11/12 06:12:36;;;;;;;;;;;;;;;10.99;64.24;103182.63;5054421;28;19923;-75
2022/11/12 06:15:02;;;;;;;;;;;;;;;11.07;64.18;103175.38;5054761;28;19966;-76
2022/11/12 06:17:27;;;;;;;;;;;;;;;10.95;64.68;103178.59;5055081;28;19913;-74
2022/11/12 06:19:52;;;;;;;;;;;;;;;11.04;64.09;103174.88;5054464;28;20008;-75
2022/11/12 06:22:17;;;;;;;;;;;;;;;10.99;64.15;103178.09;5053211;28;20384;-75
2022/11/12 06:24:42;;;;;;;;;;;;;;;10.92;64.21;103177.09;5054336;28;19919;-75
2022/11/12 06:27:08;;;;;;;;;;;;;;;10.82;64.46;103186.34;5054387;28;19919;-75
2022/11/12 06:29:33;;;;;;;;;;;;;;;10.86;64.46;103185.84;5054809;28;19915;-75
2022/11/12 06:31:58;;;;;;;;;;;;;;;10.83;64.15;103190.72;5054585;28;19924;-75
2022/11/12 06:34:24;;;;;;;;;;;;;;;10.88;64.07;103201.81;5054828;28;19924;-75
2022/11/12 06:36:49;;;;;;;;;;;;;;;10.78;64.44;103187.69;5054372;28;19920;-75
2022/11/12 06:39:14;;;;;;;;;;;;;;;10.73;64.52;103192.75;5053065;28;19909;-75
2022/11/12 06:41:39;;;;;;;;;;;;;;;10.67;64.94;103193.44;5051505;28;20252;-74
2022/11/12 06:44:05;;;;;;;;;;;;;;;10.60;65.39;103202.16;5043228;28;19913;-75
2022/11/12 06:46:30;;;;;;;;;;;;;;;10.63;65.23;103201.00;5044788;28;20287;-74
2022/11/12 06:48:55;;;;;;;;;;;;;;;10.67;64.99;103202.34;5042682;28;19989;-75
2022/11/12 06:51:21;;;;;;;;;;;;;;;10.63;65.06;103191.06;5043347;28;19913;-75
2022/11/12 06:53:46;;;;;;;;;;;;;;;10.55;65.49;103196.44;5044912;28;19921;-75
2022/11/12 06:56:12;;;;;;;;;;;;;;;10.72;64.88;103194.59;5042042;28;20392;-75
2022/11/12 06:58:37;;;;;;;;;;;;;;;10.73;64.98;103196.25;5043666;28;19952;-75
2022/11/12 07:01:04;;;;;;;;;;;;;;;10.81;64.59;103201.63;5043605;28;19979;-76
2022/11/12 07:03:29;;;;;;;;;;;;;;;10.69;64.74;103212.91;5041855;28;19917;-76
2022/11/12 07:05:54;;;;;;;;;;;;;;;10.63;65.50;103219.81;5044711;28;20439;-77
2022/11/12 07:08:20;;;;;;;;;;;;;;;10.70;64.90;103214.59;5042953;28;20354;-74
2022/11/12 07:10:45;;;;;;;;;;;;;;;10.88;64.66;103217.94;5043747;28;19913;-76
2022/11/12 07:13:11;;;;;;;;;;;;;;;10.80;64.71;103210.72;5041529;28;19921;-75
2022/11/12 07:15:36;;;;;;;;;;;;;;;10.74;64.83;103214.09;5043449;28;19948;-74
2022/11/12 07:18:01;;;;;;;;;;;;;;;10.63;65.13;103210.91;5044492;28;20392;-75
2022/11/12 07:20:27;;;;;;;;;;;;;;;10.79;64.65;103219.78;5042260;28;19960;-76
2022/11/12 07:22:52;;;;;;;;;;;;;;;10.72;64.91;103220.63;5043700;28;20376;-77
2022/11/12 07:25:17;;;;;;;;;;;;;;;10.78;64.57;103219.97;5042229;28;19923;-75
2022/11/12 07:27:42;;;;;;;;;;;;;;;10.89;64.83;103231.22;5042473;28;19920;-75
2022/11/12 07:30:08;;;;;;;;;;;;;;;10.67;66.21;103223.84;5043586;28;19927;-75
2022/11/12 07:32:33;;;;;;;;;;;;;;;10.68;66.17;103232.72;5043787;28;19920;-77
2022/11/12 07:34:58;;;;;;;;;;;;;;;11.07;64.45;103225.66;5042633;28;19917;-77
2022/11/12 07:37:24;;;;;;;;;;;;;;;10.91;65.29;103229.19;5041792;28;19916;-75
2022/11/12 07:39:49;;;;;;;;;;;;;;;11.14;64.23;103226.66;5043841;28;19921;-76
2022/11/12 07:42:14;;;;;;;;;;;;;;;10.90;65.37;103230.22;5041935;28;19909;-74
2022/11/12 07:44:39;;;;;;;;;;;;;;;11.16;64.39;103238.94;5042110;28;19916;-76
2022/11/12 07:47:05;;;;;;;;;;;;;;;11.17;64.48;103246.00;5041553;28;19970;-75
2022/11/12 07:49:30;;;;;;;;;;;;;;;11.16;64.47;103246.19;5041433;28;20000;-76
2022/11/12 07:51:55;;;;;;;;;;;;;;;11.22;64.25;103235.56;5043211;28;20383;-76
2022/11/12 07:54:20;;;;;;;;;;;;;;;11.23;64.36;103241.78;5042470;28;19995;-79
2022/11/12 07:56:46;;;;;;;;;;;;;;;11.31;64.52;103249.84;5041901;28;20003;-75
2022/11/12 07:59:11;;;;;;;;;;;;;;;11.28;64.47;103247.50;5041127;28;20340;-74
2022/11/12 08:01:37;;;;;;;;;;;;;;;11.31;64.27;103247.16;5042385;28;19917;-75
2022/11/12 08:04:04;;;;;;;;;;;;;;;11.39;64.15;103256.06;5041532;28;19923;-77
2022/11/12 08:06:30;;;;;;;;;;;;;;;11.49;64.16;103258.56;5043337;28;19927;-76
2022/11/12 08:08:56;;;;;;;;;;;;;;;11.51;63.93;103253.84;5042189;28;19913;-76
2022/11/12 08:11:22;;;;;;;;;;;;;;;11.45;64.80;103257.22;5043830;28;19913;-76
2022/11/12 08:13:47;;;;;;;;;;;;;;;11.41;65.24;103251.34;5040948;28;19923;-76
2022/11/12 08:16:12;;;;;;;;;;;;;;;11.59;64.41;103259.22;5044561;28;19920;-76
2022/11/12 08:18:37;;;;;;;;;;;;;;;11.68;64.48;103257.34;5041937;28;19917;-75
2022/11/12 08:21:04;;;;;;;;;;;;;;;11.72;64.63;103258.69;5042000;28;19920;-74
2022/11/12 08:23:30;;;;;;;;;;;;;;;11.82;64.22;103253.94;5043312;28;19909;-76
2022/11/12 08:25:59;;;;;;;;;;;;;;;11.98;64.00;103251.19;5039088;28;19940;-75
2022/11/12 08:28:24;;;;;;;;;;;;;;;12.01;63.94;103246.28;5041692;28;20004;-76
2022/11/12 08:30:50;;;;;;;;;;;;;;;12.09;63.46;103256.16;5043093;28;19995;-76
2022/11/12 08:33:15;;;;;;;;;;;;;;;12.20;63.70;103255.78;5040643;28;19917;-77
2022/11/12 08:35:40;;;;;;;;;;;;;;;12.17;64.22;103256.97;5042414;28;19920;-75
2022/11/12 08:38:09;;;;;;;;;;;;;;;12.27;64.31;103256.75;5042929;28;19935;-75
2022/11/12 08:40:35;;;;;;;;;;;;;;;12.29;64.41;103254.72;5040516;28;19917;-75
2022/11/12 08:43:04;;;;;;;;;;;;;;;12.34;64.16;103258.56;5040937;28;19916;-74
2022/11/12 08:45:34;;;;;;;;;;;;;;;12.44;64.09;103262.88;5042667;28;19938;-75
2022/11/12 08:48:03;;;;;;;;;;;;;;;12.19;65.09;103262.19;5040992;28;20293;-75
2022/11/12 08:50:29;;;;;;;;;;;;;;;12.34;64.83;103261.25;5040748;28;20261;-76
2022/11/12 08:53:01;;;;;;;;;;;;;;;12.75;63.71;103271.78;5042110;28;19912;-77
2022/11/12 08:55:27;;;;;;;;;;;;;;;12.74;63.85;103265.53;5041877;28;19924;-77
2022/11/12 08:57:52;;;;;;;;;;;;;;;12.89;63.11;103274.50;5041954;28;19944;-75
2022/11/12 09:00:18;;;;;;;;;;;;;;;12.65;63.96;103282.81;5040346;28;19991;-76
2022/11/12 09:02:43;;;;;;;;;;;;;;;12.94;63.39;103279.38;5041852;28;19913;-76
2022/11/12 09:05:08;;;;;;;;;;;;;;;12.83;63.60;103275.25;5039993;28;19971;-76
2022/11/12 09:07:33;;;;;;;;;;;;;;;12.89;64.00;103276.38;5041937;28;19917;-76
2022/11/12 09:10:00;;;;;;;;;;;;;;;12.97;63.86;103279.84;5046515;28;19971;-76
2022/11/12 09:12:25;;;;;;;;;;;;;;;12.95;64.66;103286.47;5051248;28;20269;-75
2022/11/12 09:14:50;;;;;;;;;;;;;;;12.99;63.96;103283.19;5051896;28;20011;-75
2022/11/12 09:17:15;;;;;;;;;;;;;;;12.94;63.98;103279.38;5031006;28;20328;-76
2022/11/12 09:19:41;;;;;;;;;;;;;;;12.99;64.40;103275.09;5031323;28;20423;-77
2022/11/12 09:22:06;;;;;;;;;;;;;;;13.10;63.85;103273.88;5031566;28;19917;-76
2022/11/12 09:24:32;;;;;;;;;;;;;;;13.23;63.18;103272.22;5042966;28;19996;-76
2022/11/12 09:26:57;;;;;;;;;;;;;;;13.36;62.93;103268.91;5037694;28;19919;-73
2022/11/12 09:29:22;;;;;;;;;;;;;;;13.27;63.59;103266.47;5031701;28;19905;-75
2022/11/12 09:31:47;;;;;;;;;;;;;;;13.27;63.53;103278.09;5037012;28;19979;-75
2022/11/12 09:34:13;;;;;;;;;;;;;;;13.48;63.45;103272.84;5042483;28;20364;-76
2022/11/12 09:36:38;;;;;;;;;;;;;;;13.65;62.77;103262.66;5048479;28;19921;-76
2022/11/12 09:39:03;;;;;;;;;;;;;;;13.68;63.14;103263.13;5042998;28;19919;-76
2022/11/12 09:41:34;;;;;;;;;;;;;;;13.70;63.09;103257.56;5039607;28;20036;-76
2022/11/12 09:44:04;;;;;;;;;;;;;;;13.82;62.65;103258.75;5037473;28;19923;-76
2022/11/12 09:46:46;;;;;;;;;;;;;;;13.89;62.52;103252.41;5037242;28;19917;-76
2022/11/12 09:49:18;;;;;;;;;;;;;;;13.90;62.77;103261.34;5037093;28;19917;-76
2022/11/12 09:52:03;;;;;;;;;;;;;;;13.85;62.77;103259.22;5045125;28;20368;-74
2022/11/12 09:54:28;;;;;;;;;;;;;;;14.05;62.79;103264.88;5045037;28;19924;-73
2022/11/12 09:56:53;;;;;;;;;;;;;;;14.04;62.75;103258.63;5041739;28;19921;-76
2022/11/12 09:59:19;;;;;;;;;;;;;;;14.00;63.52;103260.03;5043301;28;19932;-75
2022/11/12 10:02:03;;;;;;;;;;;;;;;14.17;62.44;103266.06;5044651;28;19916;-74
2022/11/12 10:04:47;;;;;;;;;;;;;;;14.27;62.79;103269.28;5044435;28;19917;-75
2022/11/12 10:07:21;;;;;;;;;;;;;;;14.31;62.44;103264.41;5037372;28;19956;-75
2022/11/12 10:10:01;;;;;;;;;;;;;;;14.54;62.64;103265.91;5051622;28;19917;-73
2022/11/12 10:12:35;;;;;;;;;;;;;;;14.33;63.23;103265.88;5050896;28;20358;-72
2022/11/12 10:18:08;;;;;;;;;;;;;;;14.97;61.96;103266.75;5048098;28;19947;-73
2022/11/12 10:20:39;;;;;;;;;;;;;;;14.98;61.54;103267.59;5051257;28;19912;-74
2022/11/12 10:23:33;;;;;;;;;;;;;;;14.94;62.06;103275.22;5036680;28;19920;-73
2022/11/12 10:25:59;;;;;;;;;;;;;;;15.13;61.98;103262.91;4989754;28;19917;-74
2022/11/12 10:28:29;;;;;;;;;;;;;;;15.22;61.32;103264.44;4989953;28;19918;-74
2022/11/12 10:31:04;;;;;;;;;;;;;;;15.11;62.05;103263.13;4990391;28;19918;-74
2022/11/12 10:33:31;;;;;;;;;;;;;;;15.36;61.54;103267.06;4988026;28;19928;-75
2022/11/12 10:36:11;;;;;;;;;;;;;;;15.34;61.78;103260.16;4990656;28;19924;-72
2022/11/12 10:38:36;;;;;;;;;;;;;;;15.03;62.48;103257.00;4990946;28;19925;-72
2022/11/12 10:41:16;;;;;;;;;;;;;;;15.42;61.58;103249.19;4990887;28;19917;-74
2022/11/12 10:43:52;;;;;;;;;;;;;;;15.84;60.69;103244.41;4990218;28;19925;-74
2022/11/12 10:46:19;;;;;;;;;;;;;;;15.66;61.00;103246.00;4990836;28;20017;-74
2022/11/12 10:48:52;;;;;;;;;;;;;;;15.87;60.35;103242.34;4990500;28;19924;-74
2022/11/12 10:51:20;;;;;;;;;;;;;;;16.02;60.25;103238.44;4990368;28;19917;-73
2022/11/12 10:53:46;;;;;;;;;;;;;;;16.06;59.90;103230.78;4985998;28;19913;-73
2022/11/12 10:56:24;;;;;;;;;;;;;;;16.25;59.42;103227.28;4987469;28;19921;-73
2022/11/12 10:59:07;;;;;;;;;;;;;;;16.38;58.92;103224.56;4987381;28;19920;-73
2022/11/12 11:01:32;;;;;;;;;;;;;;;16.35;59.68;103223.09;4997814;28;19979;-72
2022/11/12 11:03:58;;;;;;;;;;;;;;;16.29;60.17;103214.97;5052756;28;19960;-72
2022/11/12 11:06:24;;;;;;;;;;;;;;;16.55;59.85;103224.03;5052881;28;20368;-73
2022/11/12 11:08:51;;;;;;;;;;;;;;;16.40;59.27;103222.50;5052613;28;19920;-72
2022/11/12 11:11:18;;;;;;;;;;;;;;;16.40;58.28;103225.22;5052633;28;19917;-71
2022/11/12 11:13:43;;;;;;;;;;;;;;;16.84;57.84;103217.38;5052742;28;19916;-71
2022/11/12 11:16:18;;;;;;;;;;;;;;;16.96;57.54;103214.88;5052699;28;19921;-72
2022/11/12 11:18:49;;;;;;;;;;;;;;;17.15;57.10;103216.72;5052118;28;19928;-71
2022/11/12 11:21:17;;;;;;;;;;;;;;;16.91;57.75;103223.63;5052616;28;19916;-71
2022/11/12 11:23:47;;;;;;;;;;;;;;;17.13;57.53;103222.38;5046842;28;20011;-72
2022/11/12 11:26:21;;;;;;;;;;;;;;;16.75;57.49;103209.63;5052835;28;20043;-72
2022/11/12 11:28:54;;;;;;;;;;;;;;;17.38;56.12;103204.34;5052122;28;20280;-75
2022/11/12 11:31:43;;;;;;;;;;;;;;;17.44;55.48;103199.94;5038614;28;20013;-72
2022/11/12 11:34:08;;;;;;;;;;;;;;;17.49;56.37;103203.72;5052000;28;20003;-71
2022/11/12 11:36:33;;;;;;;;;;;;;;;17.76;55.28;103195.47;5051674;28;20051;-71
2022/11/12 11:39:25;;;;;;;;;;;;;;;17.99;55.02;103203.94;5052136;28;20288;-73
2022/11/12 11:42:04;;;;;;;;;;;;;;;17.81;55.19;103201.13;5018534;28;20400;-74
2022/11/12 11:44:36;;;;;;;;;;;;;;;17.90;54.69;103197.94;5029776;28;20430;-75
2022/11/12 11:47:08;;;;;;;;;;;;;;;17.77;55.04;103194.44;5029216;28;19917;-71
2022/11/12 11:49:33;;;;;;;;;;;;;;;17.93;53.38;103199.38;5028600;28;19925;-71
2022/11/12 11:52:02;;;;;;;;;;;;;;;18.25;53.15;103193.75;5026711;28;19962;-73
2022/11/12 11:54:46;;;;;;;;;;;;;;;17.85;54.20;103195.00;5026074;28;20416;-72
2022/11/12 11:57:15;;;;;;;;;;;;;;;17.90;53.97;103194.38;5025640;28;20268;-73
2022/11/12 11:59:48;;;;;;;;;;;;;;;18.20;52.75;103190.84;5010957;28;20335;-72
2022/11/12 12:02:23;;;;;;;;;;;;;;;18.49;52.18;103194.06;5027168;28;19917;-71
2022/11/12 12:05:07;;;;;;;;;;;;;;;18.18;52.86;103190.22;5026908;28;19999;-72
2022/11/12 12:07:35;;;;;;;;;;;;;;;18.50;52.75;103184.81;5027155;28;19924;-73
2022/11/12 12:10:15;;;;;;;;;;;;;;;18.61;52.35;103195.84;5009266;28;20482;-73
2022/11/12 12:12:59;;;;;;;;;;;;;;;18.34;53.32;103187.00;5023165;28;20341;-72
2022/11/12 12:15:33;;;;;;;;;;;;;;;18.46;51.84;103186.31;5023393;28;19979;-72
2022/11/12 12:18:31;;;;;;;;;;;;;;;18.72;51.87;103180.66;5030605;28;19917;-72
2022/11/12 12:20:57;;;;;;;;;;;;;;;18.73;52.34;103175.00;4986920;28;19909;-72
2022/11/12 12:23:29;;;;;;;;;;;;;;;18.90;51.45;103183.44;4987178;28;19918;-72
2022/11/12 12:25:56;;;;;;;;;;;;;;;18.91;51.64;103179.66;4985097;28;19937;-72
2022/11/12 12:28:57;;;;;;;;;;;;;;;18.94;51.27;103180.06;4984315;28;19924;-73
2022/11/12 12:31:26;;;;;;;;;;;;;;;19.15;51.27;103178.78;4946868;29;19925;-72
2022/11/12 12:33:57;;;;;;;;;;;;;;;19.20;51.12;103178.97;4944700;29;19923;-70
2022/11/12 12:36:39;;;;;;;;;;;;;;;19.25;50.76;103169.06;4946771;29;19926;-71
2022/11/12 12:39:10;;;;;;;;;;;;;;;19.30;50.88;103171.09;4947367;29;19922;-71
2022/11/12 12:41:47;;;;;;;;;;;;;;;19.40;50.57;103165.97;4949010;29;20394;-70
2022/11/12 12:44:13;;;;;;;;;;;;;;;19.42;50.62;103166.56;4948579;29;19971;-71
2022/11/12 12:46:41;;;;;;;;;;;;;;;19.38;51.04;103168.09;4947281;29;20469;-71
2022/11/12 12:49:09;;;;;;;;;;;;;;;19.21;51.49;103156.94;4945902;29;19915;-71
2022/11/12 12:51:35;;;;;;;;;;;;;;;19.21;51.52;103161.53;4946012;29;19981;-71
2022/11/12 12:54:01;;;;;;;;;;;;;;;18.87;52.40;103159.38;4948980;29;20293;-70
2022/11/12 12:56:29;;;;;;;;;;;;;;;19.08;52.00;103156.22;4965674;28;19918;-72
2022/11/12 12:58:55;;;;;;;;;;;;;;;19.27;51.65;103155.19;4988537;28;19925;-72
2022/11/12 13:01:21;;;;;;;;;;;;;;;19.11;51.77;103147.59;4988124;28;19918;-70
2022/11/12 13:04:02;;;;;;;;;;;;;;;19.58;50.38;103149.59;4987824;28;20479;-71
2022/11/12 13:06:30;;;;;;;;;;;;;;;19.40;51.11;103143.34;5046725;28;19920;-76
2022/11/12 13:08:55;;;;;;;;;;;;;;;19.63;50.04;103140.75;5048063;28;19979;-71